createdAt,value
2022-10-19T00:02:15.268Z,27.60
2022-10-19T00:04:42.850Z,26.42
2022-10-19T00:07:11.962Z,24.52
2022-10-19T00:09:39.747Z,29.42
2022-10-19T00:12:07.349Z,28.55
2022-10-19T00:14:34.916Z,26.15
2022-10-19T00:17:02.750Z,30.13
2022-10-19T00:19:30.382Z,28.17
2022-10-19T00:21:57.890Z,31.58
2022-10-19T00:24:26.879Z,25.77
2022-10-19T00:26:54.756Z,28.50
2022-10-19T00:29:22.310Z,28.50
2022-10-19T00:31:50.325Z,32.25
2022-10-19T00:34:18.230Z,29.38
2022-10-19T00:36:46.450Z,32.03
2022-10-19T00:39:15.922Z,27.65
2022-10-19T00:41:46.968Z,30.38
2022-10-19T00:44:51.949Z,27.42
2022-10-19T00:47:23.471Z,26.23
2022-10-19T00:49:51.267Z,27.52
2022-10-19T00:52:21.941Z,28.55
2022-10-19T00:54:52.502Z,27.30
2022-10-19T00:57:22.164Z,28.45
2022-10-19T00:59:50.542Z,25.23
2022-10-19T01:02:18.541Z,27.63
2022-10-19T01:04:49.800Z,27.98
2022-10-19T01:07:17.834Z,30.20
2022-10-19T01:09:45.510Z,25.17
2022-10-19T01:12:34.114Z,29.83
2022-10-19T01:15:16.357Z,24.63
2022-10-19T01:17:54.116Z,26.50
2022-10-19T01:20:53.761Z,27.77
2022-10-19T01:23:56.780Z,27.13
2022-10-19T01:27:05.307Z,26.95
2022-10-19T01:29:51.914Z,24.30
2022-10-19T01:32:25.289Z,28.73
2022-10-19T01:35:00.957Z,25.67
2022-10-19T01:37:37.266Z,27.10
2022-10-19T01:40:11.669Z,27.08
2022-10-19T01:42:47.470Z,26.80
2022-10-19T01:45:20.964Z,26.48
2022-10-19T01:47:54.004Z,26.05
2022-10-19T01:50:29.678Z,25.25
2022-10-19T01:52:58.742Z,22.25
2022-10-19T01:55:28.955Z,25.77
2022-10-19T01:58:01.695Z,22.98
2022-10-19T02:00:33.038Z,25.75
2022-10-19T02:03:01.793Z,25.53
2022-10-19T02:05:33.482Z,24.85
2022-10-19T02:08:04.858Z,22.33
2022-10-19T02:10:36.123Z,26.10
2022-10-19T02:13:05.500Z,27.15
2022-10-19T02:15:37.281Z,27.05
2022-10-19T02:18:07.019Z,31.63
2022-10-19T02:20:37.031Z,25.52
2022-10-19T02:23:05.675Z,29.58
2022-10-19T02:25:34.258Z,29.00
2022-10-19T02:28:03.372Z,28.75
2022-10-19T02:30:31.102Z,30.20
2022-10-19T02:33:00.106Z,32.75
2022-10-19T02:35:27.945Z,36.93
2022-10-19T02:37:58.786Z,32.03
2022-10-19T02:40:28.327Z,33.75
2022-10-19T02:43:01.185Z,35.83
2022-10-19T02:45:32.012Z,38.42
2022-10-19T02:48:03.387Z,34.67
2022-10-19T02:50:31.466Z,35.38
2022-10-19T02:52:59.418Z,37.00
2022-10-19T02:55:27.263Z,37.25
2022-10-19T02:57:54.825Z,35.53
2022-10-19T03:00:22.396Z,39.13
2022-10-19T03:02:49.947Z,34.73
2022-10-19T03:05:18.851Z,32.88
2022-10-19T03:07:46.826Z,32.17
2022-10-19T03:10:14.379Z,34.03
2022-10-19T03:12:41.921Z,34.13
2022-10-19T03:15:11.631Z,36.37
2022-10-19T03:17:39.387Z,41.28
2022-10-19T03:20:08.226Z,42.83
2022-10-19T03:22:37.159Z,48.60
2022-10-19T03:25:05.268Z,49.15
2022-10-19T03:27:33.010Z,53.70
2022-10-19T03:30:00.810Z,47.25
2022-10-19T03:32:28.370Z,49.27
2022-10-19T03:34:55.934Z,56.00
2022-10-19T03:37:23.502Z,50.57
2022-10-19T03:39:52.430Z,57.22
2022-10-19T03:42:20.065Z,53.85
2022-10-19T03:44:47.631Z,57.90
2022-10-19T03:47:15.171Z,53.53
2022-10-19T03:49:43.543Z,58.70
2022-10-19T03:52:11.152Z,52.70
2022-10-19T03:54:38.747Z,56.05
2022-10-19T03:57:07.742Z,49.58
2022-10-19T03:59:35.466Z,56.00
2022-10-19T04:02:04.007Z,50.10
2022-10-19T04:04:31.528Z,49.28
2022-10-19T04:06:59.073Z,47.90
2022-10-19T04:09:26.668Z,46.55
2022-10-19T04:11:54.253Z,46.83
2022-10-19T04:14:32.781Z,50.63
2022-10-19T04:17:01.207Z,49.50
2022-10-19T04:19:28.789Z,46.40
2022-10-19T04:21:56.724Z,42.58
2022-10-19T04:24:24.434Z,45.97
2022-10-19T04:26:53.424Z,43.75
2022-10-19T04:29:29.427Z,49.13
2022-10-19T04:31:58.851Z,43.53
2022-10-19T04:34:26.392Z,45.28
2022-10-19T04:36:54.202Z,41.22
2022-10-19T04:39:21.786Z,44.95
2022-10-19T04:41:49.360Z,49.40
2022-10-19T04:44:17.026Z,46.30
2022-10-19T04:46:46.025Z,44.40
2022-10-19T04:49:16.470Z,43.78
2022-10-19T04:51:46.982Z,41.13
2022-10-19T04:54:14.580Z,39.60
2022-10-19T04:56:42.179Z,44.47
2022-10-19T04:59:10.747Z,40.00
2022-10-19T05:01:38.730Z,41.53
2022-10-19T05:04:11.231Z,32.92
2022-10-19T05:06:39.262Z,36.22
2022-10-19T05:09:07.375Z,34.58
2022-10-19T05:11:34.974Z,36.08
2022-10-19T05:14:03.190Z,37.47
2022-10-19T05:16:30.741Z,32.15
2022-10-19T05:18:59.574Z,27.17
2022-10-19T05:21:29.652Z,26.30
2022-10-19T05:23:58.437Z,26.42
2022-10-19T05:26:27.758Z,28.73
2022-10-19T05:28:57.811Z,26.25
2022-10-19T05:31:27.467Z,26.13
2022-10-19T05:33:56.093Z,23.80
2022-10-19T05:36:26.545Z,24.63
2022-10-19T05:38:57.534Z,24.63
2022-10-19T05:41:26.865Z,21.27
2022-10-19T05:43:55.999Z,21.08
2022-10-19T05:46:24.580Z,22.48
2022-10-19T05:48:52.259Z,20.85
2022-10-19T05:51:22.458Z,23.05
2022-10-19T05:53:50.383Z,20.63
2022-10-19T05:56:20.510Z,24.60
2022-10-19T05:58:48.658Z,21.10
2022-10-19T06:01:18.847Z,22.60
2022-10-19T06:03:47.364Z,24.42
2022-10-19T06:06:14.944Z,24.40
2022-10-19T06:08:42.521Z,29.65
2022-10-19T06:11:12.518Z,35.28
2022-10-19T06:13:43.521Z,35.95
2022-10-19T06:16:12.617Z,36.47
2022-10-19T06:18:40.555Z,37.72
2022-10-19T06:21:11.604Z,37.13
2022-10-19T06:23:39.384Z,34.05
2022-10-19T06:26:08.679Z,34.13
2022-10-19T06:28:37.468Z,39.50
2022-10-19T06:31:09.336Z,37.13
2022-10-19T06:33:37.750Z,41.67
2022-10-19T06:36:09.482Z,41.83
2022-10-19T06:38:37.296Z,45.92
2022-10-19T06:41:05.289Z,43.90
2022-10-19T06:43:33.402Z,50.85
2022-10-19T06:46:06.535Z,52.40
2022-10-19T06:48:34.129Z,48.55
2022-10-19T06:51:06.221Z,44.15
2022-10-19T06:53:34.418Z,41.42
2022-10-19T06:56:04.081Z,42.15
2022-10-19T06:58:31.793Z,43.45
2022-10-19T07:01:00.995Z,52.57
2022-10-19T07:03:31.038Z,49.95
2022-10-19T07:06:00.527Z,49.77
2022-10-19T07:08:30.109Z,47.90
2022-10-19T07:10:59.646Z,50.38
2022-10-19T07:13:28.877Z,54.78
2022-10-19T07:15:58.255Z,50.13
2022-10-19T07:18:26.330Z,49.95
2022-10-19T07:21:00.193Z,46.45
2022-10-19T07:23:29.674Z,44.97
2022-10-19T07:26:01.475Z,57.05
2022-10-19T07:28:31.367Z,47.50
2022-10-19T07:30:58.917Z,44.55
2022-10-19T07:33:26.454Z,40.35
2022-10-19T07:36:01.629Z,42.08
2022-10-19T07:38:29.989Z,47.83
2022-10-19T07:41:02.168Z,44.72
2022-10-19T07:43:29.985Z,42.53
2022-10-19T07:46:02.054Z,41.00
2022-10-19T07:48:29.957Z,36.17
2022-10-19T07:50:57.522Z,38.13
2022-10-19T07:53:26.448Z,41.45
2022-10-19T07:55:53.979Z,40.25
2022-10-19T07:58:21.554Z,39.75
2022-10-19T08:00:49.081Z,39.28
2022-10-19T08:03:57.522Z,39.22
2022-10-19T08:06:06.407Z,41.33
2022-10-19T08:08:36.191Z,43.40
2022-10-19T08:11:08.155Z,46.90
2022-10-19T08:13:35.687Z,46.77
2022-10-19T08:16:03.349Z,48.55
2022-10-19T08:21:03.484Z,48.42
2022-10-19T08:23:31.071Z,46.45
2022-10-19T08:26:00.128Z,43.17
2022-10-19T08:28:27.686Z,45.88
2022-10-19T08:30:58.803Z,42.67
2022-10-19T08:33:27.254Z,46.75
2022-10-19T08:35:54.850Z,45.80
2022-10-19T08:38:22.394Z,46.42
2022-10-19T08:40:50.156Z,41.93
2022-10-19T08:43:27.484Z,35.78
2022-10-19T08:46:02.273Z,29.90
2022-10-19T08:48:33.182Z,27.58
2022-10-19T08:51:01.880Z,28.67
2022-10-19T08:53:38.126Z,30.30
2022-10-19T08:56:38.928Z,34.03
2022-10-19T08:59:15.019Z,30.05
2022-10-19T09:01:47.905Z,30.70
2022-10-19T09:04:22.564Z,26.83
2022-10-19T09:07:00.637Z,27.55
2022-10-19T09:09:31.407Z,30.42
2022-10-19T09:12:04.905Z,28.35
2022-10-19T09:14:40.296Z,29.08
2022-10-19T09:17:14.541Z,26.80
2022-10-19T09:19:42.387Z,30.20
2022-10-19T09:22:19.935Z,27.23
2022-10-19T09:24:51.702Z,30.48
2022-10-19T09:27:23.001Z,27.83
2022-10-19T09:29:56.805Z,28.25
2022-10-19T09:32:28.814Z,26.52
2022-10-19T09:35:01.059Z,28.45
2022-10-19T09:39:57.855Z,26.80
2022-10-19T09:42:29.345Z,27.20
2022-10-19T09:45:00.247Z,28.67
2022-10-19T09:47:34.416Z,26.52
2022-10-19T09:50:20.235Z,27.58
2022-10-19T09:52:49.454Z,27.10
2022-10-19T09:55:29.466Z,29.10
2022-10-19T09:58:03.787Z,28.27
2022-10-19T10:00:36.873Z,28.10
2022-10-19T10:03:07.443Z,29.50
2022-10-19T10:05:37.937Z,30.42
2022-10-19T10:08:13.179Z,28.83
2022-10-19T10:10:46.204Z,39.60
2022-10-19T10:13:18.960Z,42.13
2022-10-19T10:15:50.507Z,39.33
2022-10-19T10:18:19.850Z,43.30
2022-10-19T10:20:59.244Z,41.88
2022-10-19T10:23:32.146Z,33.90
2022-10-19T10:26:01.138Z,39.47
2022-10-19T10:28:30.465Z,38.30
2022-10-19T10:31:04.442Z,41.60
2022-10-19T10:36:26.322Z,39.07
2022-10-19T10:39:04.297Z,38.47
2022-10-19T10:41:32.624Z,38.25
2022-10-19T10:44:04.848Z,38.03
2022-10-19T10:46:38.181Z,38.95
2022-10-19T10:49:08.114Z,41.33
2022-10-19T10:51:39.950Z,50.20
2022-10-19T10:54:16.809Z,50.35
2022-10-19T10:56:45.428Z,53.78
2022-10-19T10:59:19.684Z,50.58
2022-10-19T11:02:02.314Z,55.65
2022-10-19T11:04:36.408Z,67.80
2022-10-19T11:07:17.127Z,63.15
2022-10-19T11:09:51.836Z,60.03
2022-10-19T11:12:26.029Z,61.05
2022-10-19T11:15:01.739Z,61.72
2022-10-19T11:17:34.033Z,60.77
2022-10-19T11:20:01.937Z,66.47
2022-10-19T11:22:36.231Z,68.40
2022-10-19T11:25:20.799Z,68.65
2022-10-19T11:28:00.575Z,65.97
2022-10-19T11:30:28.589Z,60.38
2022-10-19T11:33:05.189Z,57.97
2022-10-19T11:35:47.659Z,48.95
2022-10-19T11:38:35.658Z,41.90
2022-10-19T11:41:18.682Z,33.17
2022-10-19T11:44:03.980Z,32.22
2022-10-19T11:46:40.209Z,27.92
2022-10-19T11:49:24.933Z,27.67
2022-10-19T11:51:57.468Z,25.90
2022-10-19T11:54:35.991Z,27.48
2022-10-19T11:57:11.844Z,25.77
2022-10-19T12:00:00.182Z,19.15
2022-10-19T12:03:12.250Z,19.33
2022-10-19T12:05:55.250Z,21.95
2022-10-19T12:08:34.398Z,17.67
2022-10-19T12:11:12.791Z,29.98
2022-10-19T12:13:43.227Z,15.40
2022-10-19T12:16:12.625Z,15.70
2022-10-19T12:18:44.557Z,12.60
2022-10-19T12:21:18.970Z,11.18
2022-10-19T12:23:47.994Z,11.63
2022-10-19T12:28:54.568Z,9.30
2022-10-19T12:31:22.932Z,9.10
2022-10-19T12:33:57.808Z,8.23
2022-10-19T12:36:35.897Z,7.65
2022-10-19T12:39:13.190Z,9.52
2022-10-19T12:41:46.926Z,10.07
2022-10-19T12:44:41.457Z,9.40
2022-10-19T12:47:12.427Z,9.13
2022-10-19T12:49:48.771Z,8.50
2022-10-19T12:52:35.490Z,10.32
2022-10-19T12:55:24.882Z,11.18
2022-10-19T12:58:01.126Z,28.08
2022-10-19T13:00:32.052Z,20.13
2022-10-19T13:03:03.891Z,18.75
2022-10-19T13:05:33.289Z,23.83
2022-10-19T13:08:07.986Z,26.35
2022-10-19T13:10:38.649Z,25.83
2022-10-19T13:13:06.542Z,24.90
2022-10-19T13:15:52.709Z,24.70
2022-10-19T13:19:07.098Z,28.52
2022-10-19T13:22:24.141Z,25.50
2022-10-19T13:25:28.363Z,24.40
2022-10-19T13:27:58.075Z,27.35
2022-10-19T13:31:07.071Z,22.37
2022-10-19T13:33:45.847Z,26.45
2022-10-19T13:36:14.008Z,28.95
2022-10-19T13:38:44.254Z,24.95
2022-10-19T13:41:18.312Z,22.58
2022-10-19T13:43:54.217Z,45.35
2022-10-19T13:46:27.452Z,29.13
2022-10-19T13:49:22.720Z,23.77
2022-10-19T13:52:04.634Z,21.35
2022-10-19T13:54:59.132Z,18.40
2022-10-19T13:57:47.817Z,21.15
2022-10-19T14:00:19.701Z,18.73
2022-10-19T14:03:19.638Z,16.33
2022-10-19T14:06:18.447Z,17.98
2022-10-19T14:09:10.199Z,18.38
2022-10-19T14:11:40.830Z,18.75
2022-10-19T14:14:14.767Z,24.92
2022-10-19T14:16:59.806Z,19.45
2022-10-19T14:19:33.678Z,17.70
2022-10-19T14:22:02.783Z,17.53
2022-10-19T14:24:32.863Z,20.23
2022-10-19T14:27:02.903Z,20.75
2022-10-19T14:29:34.639Z,21.33
2022-10-19T14:32:02.491Z,19.52
2022-10-19T14:34:30.119Z,18.10
2022-10-19T14:36:57.744Z,15.13
2022-10-19T14:39:30.604Z,15.27
2022-10-19T14:42:00.459Z,14.18
2022-10-19T14:44:42.279Z,16.90
2022-10-19T14:47:22.431Z,17.25
2022-10-19T14:49:50.689Z,15.40
2022-10-19T14:52:25.567Z,15.83
2022-10-19T14:54:56.586Z,13.20
2022-10-19T14:57:29.481Z,11.48
2022-10-19T15:00:01.780Z,10.00
2022-10-19T15:02:33.155Z,11.23
2022-10-19T15:05:04.366Z,10.82
2022-10-19T15:07:38.077Z,10.73
2022-10-19T15:10:09.162Z,7.60
2022-10-19T15:12:40.887Z,7.77
2022-10-19T15:15:16.409Z,9.35
2022-10-19T15:17:52.311Z,13.02
2022-10-19T15:20:29.405Z,11.35
2022-10-19T15:22:57.926Z,8.10
2022-10-19T15:25:33.859Z,8.38
2022-10-19T15:28:19.827Z,7.38
2022-10-19T15:30:59.203Z,8.10
2022-10-19T15:33:27.038Z,7.43
2022-10-19T15:36:06.849Z,7.70
2022-10-19T15:38:35.586Z,7.85
2022-10-19T15:41:05.210Z,7.72
2022-10-19T15:43:54.973Z,5.97
2022-10-19T15:46:34.684Z,6.45
2022-10-19T15:49:12.372Z,6.40
2022-10-19T15:51:47.576Z,4.72
2022-10-19T15:54:17.208Z,7.47
2022-10-19T15:56:46.553Z,6.32
2022-10-19T15:59:17.343Z,5.03
2022-10-19T16:01:52.519Z,6.93
2022-10-19T16:04:22.710Z,6.97
2022-10-19T16:06:50.313Z,7.28
2022-10-19T16:09:19.856Z,4.53
2022-10-19T16:11:48.246Z,6.30
2022-10-19T16:16:45.662Z,6.47
2022-10-19T16:19:13.221Z,5.05
2022-10-19T16:21:40.929Z,5.43
2022-10-19T16:24:08.555Z,5.70
2022-10-19T16:26:36.114Z,5.40
2022-10-19T16:29:03.691Z,6.60
2022-10-19T16:31:31.705Z,7.70
2022-10-19T16:34:00.731Z,7.30
2022-10-19T16:36:28.291Z,6.22
2022-10-19T16:38:55.861Z,6.07
2022-10-19T16:41:23.659Z,5.80
2022-10-19T16:43:55.599Z,5.75
2022-10-19T16:46:23.703Z,7.60
2022-10-19T16:48:51.568Z,6.57
2022-10-19T16:51:35.342Z,7.65
2022-10-19T16:54:04.305Z,7.00
2022-10-19T16:56:33.024Z,6.70
2022-10-19T16:59:02.945Z,8.07
2022-10-19T17:01:31.865Z,8.38
2022-10-19T17:03:59.931Z,8.13
2022-10-19T17:06:29.458Z,9.32
2022-10-19T17:11:45.878Z,10.45
2022-10-19T17:14:13.991Z,9.13
2022-10-19T17:16:41.830Z,8.07
2022-10-19T17:19:11.232Z,8.63
2022-10-19T17:21:42.129Z,8.10
2022-10-19T17:24:20.239Z,8.15
2022-10-19T17:26:49.826Z,10.85
2022-10-19T17:29:17.619Z,9.15
2022-10-19T17:31:45.355Z,11.77
2022-10-19T17:34:13.201Z,9.98
2022-10-19T17:36:44.488Z,11.70
2022-10-19T17:39:14.545Z,10.45
2022-10-19T17:41:42.109Z,8.40
2022-10-19T17:44:09.765Z,8.00
2022-10-19T17:46:37.476Z,8.10
2022-10-19T17:49:05.421Z,7.53
2022-10-19T17:51:36.119Z,8.90
2022-10-19T17:54:07.476Z,10.02
2022-10-19T17:56:35.483Z,7.95
2022-10-19T17:59:03.665Z,8.40
2022-10-19T18:01:31.656Z,8.18
2022-10-19T18:03:59.310Z,8.43
2022-10-19T18:06:29.454Z,9.85
2022-10-19T18:08:58.524Z,8.88
2022-10-19T18:11:29.287Z,8.75
2022-10-19T18:13:58.386Z,9.23
2022-10-19T18:16:28.542Z,8.80
2022-10-19T18:18:58.906Z,8.27
2022-10-19T18:21:30.058Z,9.25
2022-10-19T18:23:59.782Z,9.73
2022-10-19T18:26:30.956Z,11.35
2022-10-19T18:29:00.761Z,10.20
2022-10-19T18:31:30.659Z,9.18
2022-10-19T18:34:02.846Z,11.20
2022-10-19T18:36:31.210Z,9.75
2022-10-19T18:39:01.066Z,9.90
2022-10-19T18:41:30.737Z,10.07
2022-10-19T18:44:01.220Z,10.77
2022-10-19T18:46:29.104Z,8.98
2022-10-19T18:48:56.911Z,9.88
2022-10-19T18:51:25.092Z,10.40
2022-10-19T18:53:53.078Z,10.73
2022-10-19T18:56:22.443Z,9.88
2022-10-19T18:58:52.189Z,9.48
2022-10-19T19:01:22.814Z,9.88
2022-10-19T19:03:53.747Z,10.73
2022-10-19T19:06:23.489Z,10.88
2022-10-19T19:08:52.075Z,10.20
2022-10-19T19:11:21.642Z,11.63
2022-10-19T19:13:52.178Z,11.13
2022-10-19T19:16:20.297Z,9.43
2022-10-19T19:18:48.536Z,10.27
2022-10-19T19:21:18.409Z,11.52
2022-10-19T19:23:46.527Z,10.82
2022-10-19T19:26:15.114Z,10.32
2022-10-19T19:28:45.272Z,9.63
2022-10-19T19:31:16.826Z,10.00
2022-10-19T19:33:44.952Z,12.57
2022-10-19T19:36:14.910Z,12.20
2022-10-19T19:38:42.732Z,10.45
2022-10-19T19:41:13.524Z,11.70
2022-10-19T19:43:42.444Z,11.05
2022-10-19T19:46:13.367Z,11.20
2022-10-19T19:48:43.562Z,10.52
2022-10-19T19:51:13.367Z,9.67
2022-10-19T19:53:41.556Z,12.73
2022-10-19T19:56:11.026Z,13.18
2022-10-19T19:58:38.999Z,12.65
2022-10-19T20:01:12.430Z,15.75
2022-10-19T20:03:43.328Z,13.95
2022-10-19T20:06:11.414Z,13.00
2022-10-19T20:08:39.589Z,14.73
2022-10-19T20:11:09.345Z,12.60
2022-10-19T20:13:37.114Z,14.27
2022-10-19T20:16:09.277Z,15.57
2022-10-19T20:18:37.082Z,11.30
2022-10-19T20:21:06.866Z,12.93
2022-10-19T20:23:34.665Z,13.38
2022-10-19T20:26:02.374Z,13.55
2022-10-19T20:28:32.393Z,12.98
2022-10-19T20:31:01.582Z,10.98
2022-10-19T20:33:30.680Z,10.63
2022-10-19T20:35:58.290Z,12.10
2022-10-19T20:38:27.567Z,13.75
2022-10-19T20:40:55.111Z,13.20
2022-10-19T20:43:22.658Z,12.13
2022-10-19T20:45:50.191Z,12.73
2022-10-19T20:48:17.761Z,17.00
2022-10-19T20:50:45.376Z,15.10
2022-10-19T20:53:12.921Z,15.02
2022-10-19T20:55:41.888Z,16.20
2022-10-19T20:58:09.423Z,16.20
2022-10-19T21:00:36.982Z,14.77
2022-10-19T21:03:04.706Z,13.27
2022-10-19T21:05:32.236Z,13.68
2022-10-19T21:07:59.808Z,13.65
2022-10-19T21:10:27.474Z,13.30
2022-10-19T21:12:56.341Z,12.38
2022-10-19T21:15:24.282Z,14.00
2022-10-19T21:17:51.815Z,16.67
2022-10-19T21:20:20.330Z,14.80
2022-10-19T21:22:47.856Z,15.00
2022-10-19T21:25:15.595Z,14.23
2022-10-19T21:27:43.179Z,15.82
2022-10-19T21:30:13.593Z,15.88
2022-10-19T21:32:41.155Z,15.45
2022-10-19T21:35:09.116Z,13.70
2022-10-19T21:37:36.964Z,13.60
2022-10-19T21:40:05.175Z,18.50
2022-10-19T21:42:32.742Z,15.50
2022-10-19T21:45:11.658Z,16.13
2022-10-19T21:47:49.961Z,15.25
2022-10-19T21:50:18.068Z,14.35
2022-10-19T21:52:45.626Z,13.77
2022-10-19T21:55:13.170Z,14.88
2022-10-19T21:57:40.707Z,16.35
2022-10-19T22:00:09.177Z,14.77
2022-10-19T22:02:36.698Z,17.40
2022-10-19T22:05:06.152Z,16.42
2022-10-19T22:07:33.988Z,14.73
2022-10-19T22:10:01.679Z,19.52
2022-10-19T22:12:29.310Z,19.63
2022-10-19T22:14:56.879Z,17.85
2022-10-19T22:17:24.414Z,19.92
2022-10-19T22:19:52.001Z,16.98
2022-10-19T22:22:20.927Z,19.20
2022-10-19T22:24:48.509Z,17.92
2022-10-19T22:27:16.214Z,19.17
2022-10-19T22:29:44.002Z,21.20
2022-10-19T22:32:11.674Z,20.10
2022-10-19T22:34:40.027Z,20.15
2022-10-19T22:37:07.565Z,22.55
2022-10-19T22:39:36.510Z,21.80
2022-10-19T22:42:04.217Z,21.00
2022-10-19T22:44:32.422Z,22.48
2022-10-19T22:47:00.399Z,23.10
2022-10-19T22:49:27.934Z,22.58
2022-10-19T22:51:55.465Z,22.73
2022-10-19T22:54:23.037Z,21.08
2022-10-19T22:56:51.951Z,24.83
2022-10-19T22:59:19.595Z,22.90
2022-10-19T23:01:47.212Z,21.98
2022-10-19T23:04:14.927Z,24.50
2022-10-19T23:06:42.551Z,22.52
2022-10-19T23:09:10.124Z,21.95
2022-10-19T23:11:37.680Z,20.52
2022-10-19T23:14:06.557Z,21.77
2022-10-19T23:16:34.077Z,20.13
2022-10-19T23:19:01.647Z,23.23
2022-10-19T23:21:29.251Z,19.13
2022-10-19T23:23:56.843Z,21.48
2022-10-19T23:26:25.504Z,23.50
2022-10-19T23:28:53.362Z,21.35
2022-10-19T23:31:24.710Z,23.80
2022-10-19T23:33:52.837Z,20.10
2022-10-19T23:36:21.894Z,20.02
2022-10-19T23:38:50.702Z,19.80
2022-10-19T23:41:19.307Z,20.50
2022-10-19T23:43:47.253Z,20.40
2022-10-19T23:46:14.984Z,20.25
2022-10-19T23:48:44.085Z,21.17
2022-10-19T23:51:13.538Z,22.30
2022-10-19T23:53:43.210Z,24.75
2022-10-19T23:56:13.672Z,21.05
2022-10-19T23:58:41.485Z,19.35
